Time;durP1;ratioP1;P1;durP2;ratioP2;P2;SDS_P1;SDS_P2;PMS_P1;PMS_P2;Temp;Humidity;BMP_temperature;BMP_pressure;BME280_temperature;BME280_humidity;BME280_pressure;Samples;Min_cycle;Max_cycle;Signal;HPM_P1;HPM_P2
2021/09/19 00:01:12;;;;;;;6.65;2.80;;;14.90;91.30;;;;;;5032571;28;20025;-63
2021/09/19 00:03:39;;;;;;;6.82;3.13;;;15.00;91.40;;;;;;5032653;28;20034;-64
2021/09/19 00:06:04;;;;;;;6.40;3.67;;;15.00;91.40;;;;;;5032279;28;20460;-63
2021/09/19 00:08:30;;;;;;;5.60;2.95;;;14.90;91.50;;;;;;5032814;28;20104;-63
2021/09/19 00:10:57;;;;;;;4.97;2.90;;;14.90;91.50;;;;;;5019438;28;20091;-63
2021/09/19 00:13:23;;;;;;;5.38;3.17;;;14.90;91.70;;;;;;5044232;28;20028;-63
2021/09/19 00:15:49;;;;;;;5.05;3.05;;;14.90;91.70;;;;;;5043845;28;20077;-63
2021/09/19 00:18:14;;;;;;;4.50;2.88;;;14.80;91.90;;;;;;5016024;28;20064;-63
2021/09/19 00:20:40;;;;;;;5.25;4.13;;;14.80;91.90;;;;;;5042129;28;20037;-63
2021/09/19 00:23:06;;;;;;;5.03;2.78;;;14.80;92.00;;;;;;5033086;28;20036;-63
2021/09/19 00:25:32;;;;;;;4.82;3.10;;;14.80;92.00;;;;;;5051111;28;20028;-63
2021/09/19 00:27:58;;;;;;;3.90;3.03;;;14.80;92.10;;;;;;5032496;28;20018;-63
2021/09/19 00:30:23;;;;;;;5.13;3.08;;;14.80;92.20;;;;;;5032552;28;20128;-63
2021/09/19 00:32:49;;;;;;;4.57;2.90;;;14.80;92.30;;;;;;5031531;28;20045;-63
2021/09/19 00:35:15;;;;;;;10.52;4.30;;;14.80;92.30;;;;;;5051293;28;20072;-63
2021/09/19 00:37:40;;;;;;;6.35;3.15;;;14.80;92.40;;;;;;5037786;28;20042;-63
2021/09/19 00:40:07;;;;;;;5.55;3.38;;;14.80;92.40;;;;;;5031427;28;20030;-63
2021/09/19 00:42:33;;;;;;;5.70;3.00;;;14.80;92.40;;;;;;5026720;28;20025;-64
2021/09/19 00:45:00;;;;;;;6.35;3.08;;;14.80;92.50;;;;;;5030907;28;20030;-63
2021/09/19 00:47:26;;;;;;;4.78;3.28;;;14.80;92.60;;;;;;5031910;28;20462;-63
2021/09/19 00:49:52;;;;;;;4.90;3.13;;;14.80;92.50;;;;;;5048274;28;20150;-63
2021/09/19 00:52:18;;;;;;;5.82;3.15;;;14.80;92.50;;;;;;5050348;28;20501;-63
2021/09/19 00:54:47;;;;;;;6.07;3.40;;;14.80;92.50;;;;;;5031151;28;20510;-63
2021/09/19 00:57:15;;;;;;;7.45;3.38;;;14.80;92.50;;;;;;5031808;28;20038;-63
2021/09/19 00:59:41;;;;;;;6.05;3.63;;;14.80;92.50;;;;;;5031737;28;20036;-64
2021/09/19 01:02:09;;;;;;;5.53;3.67;;;14.70;92.50;;;;;;5026274;28;20478;-64
2021/09/19 01:04:35;;;;;;;5.57;3.45;;;14.70;92.60;;;;;;5041000;28;20117;-64
2021/09/19 01:07:01;;;;;;;6.18;3.30;;;14.70;92.70;;;;;;5045202;28;20132;-64
2021/09/19 01:09:26;;;;;;;5.47;3.08;;;14.60;92.80;;;;;;5040639;28;20105;-64
2021/09/19 01:11:52;;;;;;;6.20;3.60;;;14.60;92.70;;;;;;5031767;28;20040;-64
2021/09/19 01:14:22;;;;;;;5.20;3.15;;;14.60;92.70;;;;;;5042748;28;20036;-64
2021/09/19 01:16:48;;;;;;;5.50;3.40;;;14.60;92.80;;;;;;5038494;28;20397;-63
2021/09/19 01:19:21;;;;;;;6.15;2.95;;;14.70;92.90;;;;;;5042297;28;20029;-63
2021/09/19 01:21:48;;;;;;;6.25;3.67;;;14.60;92.90;;;;;;5039998;28;20067;-64
2021/09/19 01:24:15;;;;;;;5.18;3.38;;;14.60;92.90;;;;;;5030632;28;20080;-63
2021/09/19 01:26:41;;;;;;;4.07;3.03;;;14.50;92.90;;;;;;5032041;28;20385;-63
2021/09/19 01:29:07;;;;;;;6.18;3.58;;;14.60;93.00;;;;;;5034655;28;20112;-64
2021/09/19 01:31:33;;;;;;;6.57;3.72;;;14.50;93.00;;;;;;5031373;28;20021;-64
2021/09/19 01:33:59;;;;;;;4.60;3.13;;;14.50;93.10;;;;;;5030470;28;20048;-63
2021/09/19 01:36:24;;;;;;;6.60;3.25;;;14.50;93.00;;;;;;5030687;28;20194;-64
2021/09/19 01:38:50;;;;;;;7.45;4.05;;;14.50;93.00;;;;;;5030060;28;20052;-65
2021/09/19 01:41:18;;;;;;;5.95;3.40;;;14.50;93.00;;;;;;5030952;28;20582;-64
2021/09/19 01:43:43;;;;;;;5.95;3.58;;;14.50;93.00;;;;;;5036972;28;20102;-64
2021/09/19 01:46:09;;;;;;;6.18;3.53;;;14.50;93.00;;;;;;5051738;28;20107;-63
2021/09/19 01:48:36;;;;;;;6.82;3.58;;;14.50;92.80;;;;;;5036991;28;20040;-63
2021/09/19 01:51:03;;;;;;;7.03;3.60;;;14.50;92.90;;;;;;5051911;28;20108;-64
2021/09/19 01:53:28;;;;;;;5.65;3.90;;;14.40;92.90;;;;;;5026896;28;20058;-64
2021/09/19 01:55:54;;;;;;;6.47;3.75;;;14.40;92.90;;;;;;5041152;28;20551;-63
2021/09/19 01:58:23;;;;;;;10.40;4.20;;;14.40;92.90;;;;;;5015433;28;20049;-64
2021/09/19 02:00:48;;;;;;;8.70;4.25;;;14.40;92.90;;;;;;5028311;28;20029;-63
2021/09/19 02:03:14;;;;;;;5.40;3.38;;;14.50;92.90;;;;;;5017636;28;20389;-63
2021/09/19 02:05:40;;;;;;;7.00;3.88;;;14.50;92.90;;;;;;5043370;28;20021;-63
2021/09/19 02:08:05;;;;;;;6.22;3.80;;;14.50;92.90;;;;;;5030842;28;20221;-63
2021/09/19 02:10:31;;;;;;;5.93;3.70;;;14.60;92.90;;;;;;5030353;28;20025;-63
2021/09/19 02:12:57;;;;;;;5.25;3.60;;;14.60;92.70;;;;;;5030913;28;20033;-64
2021/09/19 02:15:22;;;;;;;5.28;3.67;;;14.50;92.70;;;;;;5051130;28;20119;-64
2021/09/19 02:17:48;;;;;;;6.43;3.72;;;14.50;92.80;;;;;;5030541;28;20034;-64
2021/09/19 02:20:15;;;;;;;6.60;3.95;;;14.50;92.70;;;;;;5030610;28;20049;-64
2021/09/19 02:22:41;;;;;;;6.80;4.00;;;14.50;92.70;;;;;;5030758;28;20033;-65
2021/09/19 02:25:07;;;;;;;7.78;3.28;;;14.50;92.70;;;;;;5030547;28;20026;-65
2021/09/19 02:27:35;;;;;;;7.00;3.45;;;14.60;92.70;;;;;;5029435;28;20021;-65
2021/09/19 02:30:02;;;;;;;6.40;3.90;;;14.50;92.70;;;;;;5051600;28;20037;-65
2021/09/19 02:32:27;;;;;;;6.45;3.47;;;14.50;92.80;;;;;;5038520;28;20108;-65
2021/09/19 02:34:53;;;;;;;6.78;3.45;;;14.50;92.90;;;;;;5034813;28;20096;-65
2021/09/19 02:37:18;;;;;;;5.97;3.55;;;14.50;93.00;;;;;;5040417;28;20049;-64
2021/09/19 02:39:44;;;;;;;5.38;3.63;;;14.50;93.00;;;;;;5033585;28;20030;-63
2021/09/19 02:42:09;;;;;;;8.95;3.72;;;14.50;93.30;;;;;;5035256;28;20040;-64
2021/09/19 02:44:35;;;;;;;6.82;3.50;;;14.50;93.10;;;;;;5032314;28;20104;-63
2021/09/19 02:47:00;;;;;;;5.57;3.78;;;14.50;93.10;;;;;;5034662;28;20030;-64
2021/09/19 02:49:26;;;;;;;7.65;3.58;;;14.50;93.20;;;;;;5029430;28;20097;-64
2021/09/19 02:51:51;;;;;;;4.53;3.05;;;14.50;93.30;;;;;;5015429;28;20018;-64
2021/09/19 02:54:17;;;;;;;5.82;3.33;;;14.40;93.30;;;;;;5026327;28;20033;-63
2021/09/19 02:56:42;;;;;;;7.05;3.40;;;14.40;93.30;;;;;;5034275;28;20049;-63
2021/09/19 02:59:08;;;;;;;6.85;3.95;;;14.30;93.30;;;;;;5041273;28;20392;-64
2021/09/19 03:01:33;;;;;;;5.90;3.47;;;14.40;93.40;;;;;;5041017;28;20022;-64
2021/09/19 03:03:59;;;;;;;5.05;3.13;;;14.40;93.40;;;;;;5041855;28;20371;-64
2021/09/19 03:06:26;;;;;;;5.20;3.42;;;14.40;93.40;;;;;;5034307;28;20127;-63
2021/09/19 03:08:51;;;;;;;6.40;3.47;;;14.40;93.40;;;;;;5038216;28;20029;-64
2021/09/19 03:11:17;;;;;;;6.32;3.42;;;14.40;93.40;;;;;;5033715;28;20533;-63
2021/09/19 03:13:42;;;;;;;7.45;3.33;;;14.40;93.50;;;;;;5040381;28;20052;-64
2021/09/19 03:16:08;;;;;;;6.22;3.55;;;14.50;93.50;;;;;;5046385;28;20094;-64
2021/09/19 03:18:34;;;;;;;5.68;4.05;;;14.50;93.50;;;;;;5038898;28;20036;-63
2021/09/19 03:21:00;;;;;;;5.50;3.45;;;14.50;93.40;;;;;;5049345;28;20025;-63
2021/09/19 03:23:25;;;;;;;4.75;2.92;;;14.40;93.50;;;;;;5037853;28;20036;-63
2021/09/19 03:25:51;;;;;;;5.93;3.45;;;14.50;93.40;;;;;;5049678;28;20017;-64
2021/09/19 03:28:16;;;;;;;6.15;3.80;;;14.50;93.40;;;;;;5036146;28;20160;-64
2021/09/19 03:30:42;;;;;;;6.20;3.25;;;14.50;93.40;;;;;;5018300;28;20121;-63
2021/09/19 03:33:07;;;;;;;6.05;3.30;;;14.50;93.40;;;;;;5027528;28;20068;-63
2021/09/19 03:35:32;;;;;;;3.92;3.00;;;14.50;93.40;;;;;;5037677;28;20052;-64
2021/09/19 03:37:58;;;;;;;4.60;3.00;;;14.50;93.40;;;;;;5033141;28;20029;-64
2021/09/19 03:40:24;;;;;;;8.70;3.63;;;14.50;93.40;;;;;;5025739;28;20032;-64
2021/09/19 03:42:51;;;;;;;6.13;3.60;;;14.50;93.40;;;;;;5033489;28;20029;-64
2021/09/19 03:45:17;;;;;;;4.65;3.08;;;14.50;93.50;;;;;;5032671;28;20486;-64
2021/09/19 03:47:43;;;;;;;5.70;3.25;;;14.50;93.40;;;;;;5033953;28;20018;-64
2021/09/19 03:50:10;;;;;;;5.10;3.35;;;14.50;93.40;;;;;;5040055;28;20036;-64
2021/09/19 03:52:36;;;;;;;8.40;3.78;;;14.50;93.40;;;;;;5046385;28;20083;-64
2021/09/19 03:55:02;;;;;;;6.75;3.42;;;14.60;93.40;;;;;;5040200;28;20541;-64
2021/09/19 03:57:27;;;;;;;6.35;3.80;;;14.50;93.40;;;;;;5034053;28;20041;-64
2021/09/19 03:59:53;;;;;;;5.32;3.20;;;14.50;93.40;;;;;;5031824;28;20022;-63
2021/09/19 04:02:18;;;;;;;5.65;3.25;;;14.40;93.60;;;;;;5035879;28;20112;-64
2021/09/19 04:04:44;;;;;;;5.88;3.30;;;14.40;93.70;;;;;;5036269;28;20030;-63
2021/09/19 04:07:09;;;;;;;9.77;3.55;;;14.40;93.70;;;;;;5012665;28;20025;-64
2021/09/19 04:09:34;;;;;;;5.80;3.35;;;14.40;93.70;;;;;;5027007;28;20083;-64
2021/09/19 04:12:00;;;;;;;7.28;3.60;;;14.50;93.80;;;;;;5033981;28;20581;-64
2021/09/19 04:14:25;;;;;;;7.55;3.53;;;14.40;93.80;;;;;;5044393;28;20028;-64
2021/09/19 04:16:52;;;;;;;6.30;3.33;;;14.40;93.90;;;;;;5053261;28;20508;-64
2021/09/19 04:19:18;;;;;;;8.55;3.47;;;14.40;93.90;;;;;;5028766;28;20049;-64
2021/09/19 04:21:43;;;;;;;6.88;3.35;;;14.40;94.00;;;;;;5033315;28;20068;-64
2021/09/19 04:24:09;;;;;;;6.35;3.17;;;14.40;93.90;;;;;;5038529;28;20025;-64
2021/09/19 04:26:34;;;;;;;6.63;3.42;;;14.30;93.90;;;;;;5051752;28;20474;-63
2021/09/19 04:29:00;;;;;;;5.07;3.10;;;14.30;94.00;;;;;;5036507;28;20049;-63
2021/09/19 04:31:25;;;;;;;5.07;3.50;;;14.40;94.00;;;;;;5032712;28;20028;-64
2021/09/19 04:33:51;;;;;;;6.55;3.97;;;14.40;94.30;;;;;;5032315;28;20030;-65
2021/09/19 04:36:16;;;;;;;5.38;3.55;;;14.40;94.00;;;;;;5032445;28;20482;-64
2021/09/19 04:38:42;;;;;;;6.40;3.35;;;14.40;94.10;;;;;;5031747;28;20014;-65
2021/09/19 04:41:07;;;;;;;5.60;3.00;;;14.40;94.10;;;;;;5014304;28;20049;-64
2021/09/19 04:43:33;;;;;;;7.00;3.67;;;14.40;94.10;;;;;;5023971;28;20506;-64
2021/09/19 04:45:58;;;;;;;6.57;3.40;;;14.40;94.00;;;;;;5034701;28;20036;-64
2021/09/19 04:48:23;;;;;;;5.30;3.22;;;14.40;94.10;;;;;;5035831;28;20028;-64
2021/09/19 04:50:49;;;;;;;6.20;3.35;;;14.50;94.00;;;;;;5036110;28;20053;-64
2021/09/19 04:53:14;;;;;;;8.57;3.47;;;14.40;94.00;;;;;;5034548;28;20501;-64
2021/09/19 04:55:40;;;;;;;5.93;3.45;;;14.40;94.00;;;;;;5037586;28;20104;-64
2021/09/19 04:58:05;;;;;;;4.97;3.70;;;14.50;94.00;;;;;;5033495;28;20414;-64
2021/09/19 05:00:31;;;;;;;5.82;3.53;;;14.40;94.00;;;;;;5031499;28;20037;-64
2021/09/19 05:02:56;;;;;;;6.72;3.42;;;14.50;94.10;;;;;;5031098;28;20080;-64
2021/09/19 05:05:22;;;;;;;5.75;3.55;;;14.50;94.10;;;;;;5031476;28;20014;-64
2021/09/19 05:07:48;;;;;;;6.05;3.50;;;14.50;94.10;;;;;;5031400;28;20018;-64
2021/09/19 05:10:13;;;;;;;7.78;3.35;;;14.40;94.10;;;;;;5036438;28;20075;-64
2021/09/19 05:12:39;;;;;;;4.72;3.50;;;14.40;94.10;;;;;;5032096;28;20018;-64
2021/09/19 05:15:05;;;;;;;6.82;3.58;;;14.40;94.10;;;;;;5047515;28;20456;-64
2021/09/19 05:17:30;;;;;;;7.50;3.67;;;14.40;94.30;;;;;;5049120;28;20036;-64
2021/09/19 05:19:56;;;;;;;8.95;3.97;;;14.40;94.30;;;;;;5046289;28;20500;-63
2021/09/19 05:22:21;;;;;;;6.50;3.63;;;14.50;94.30;;;;;;5051439;28;20120;-63
2021/09/19 05:24:47;;;;;;;5.15;3.80;;;14.40;94.30;;;;;;5029267;28;20025;-62
2021/09/19 05:27:12;;;;;;;8.25;3.97;;;14.40;94.30;;;;;;5031953;28;20021;-63
2021/09/19 05:29:38;;;;;;;5.93;3.40;;;14.40;94.40;;;;;;5028641;28;20029;-63
2021/09/19 05:32:04;;;;;;;7.85;3.90;;;14.40;94.40;;;;;;5031979;28;20465;-63
2021/09/19 05:34:31;;;;;;;5.22;3.33;;;14.40;94.40;;;;;;5032288;28;20057;-64
2021/09/19 05:36:58;;;;;;;7.13;3.38;;;14.40;94.50;;;;;;5031635;28;20041;-63
2021/09/19 05:39:23;;;;;;;5.47;3.45;;;14.40;94.60;;;;;;5030484;28;20109;-64
2021/09/19 05:41:50;;;;;;;6.22;3.72;;;14.40;94.60;;;;;;5032026;28;20101;-64
2021/09/19 05:44:16;;;;;;;5.85;3.70;;;14.40;94.60;;;;;;5030554;28;20029;-64
2021/09/19 05:46:41;;;;;;;8.05;3.85;;;14.40;94.50;;;;;;5031127;28;20032;-64
2021/09/19 05:49:07;;;;;;;5.95;3.67;;;14.40;94.60;;;;;;5040106;28;20108;-64
2021/09/19 05:51:32;;;;;;;7.00;3.60;;;14.40;94.70;;;;;;5043066;28;20021;-64
2021/09/19 05:53:58;;;;;;;6.00;3.58;;;14.40;94.70;;;;;;5038933;28;20470;-64
2021/09/19 05:56:23;;;;;;;7.15;3.50;;;14.50;94.50;;;;;;5045513;28;20049;-64
2021/09/19 05:58:49;;;;;;;5.30;3.42;;;14.50;94.50;;;;;;5031169;28;20052;-64
2021/09/19 06:01:14;;;;;;;6.50;3.78;;;14.50;94.40;;;;;;5029117;28;20029;-64
2021/09/19 06:03:41;;;;;;;7.30;3.35;;;14.50;94.40;;;;;;5036308;28;20542;-64
2021/09/19 06:06:06;;;;;;;7.22;4.00;;;14.50;94.40;;;;;;5035731;28;20079;-64
2021/09/19 06:08:32;;;;;;;9.07;3.88;;;14.50;94.60;;;;;;5030367;28;20128;-64
2021/09/19 06:10:58;;;;;;;4.88;3.20;;;14.50;94.30;;;;;;5030424;28;20044;-64
2021/09/19 06:13:23;;;;;;;6.97;3.38;;;14.50;94.30;;;;;;5030889;28;20030;-64
2021/09/19 06:15:48;;;;;;;6.18;4.43;;;14.50;94.40;;;;;;5030757;28;20048;-64
2021/09/19 06:18:14;;;;;;;6.15;3.92;;;14.60;94.50;;;;;;5032230;28;20025;-64
2021/09/19 06:20:40;;;;;;;8.57;3.55;;;14.60;94.60;;;;;;5039987;28;20056;-65
2021/09/19 06:23:07;;;;;;;5.85;3.50;;;14.60;94.40;;;;;;5028440;28;20120;-65
2021/09/19 06:25:32;;;;;;;7.18;3.78;;;14.70;94.40;;;;;;5030882;28;20026;-65
2021/09/19 06:27:58;;;;;;;5.75;3.53;;;14.60;94.30;;;;;;5030623;28;20079;-65
2021/09/19 06:30:25;;;;;;;6.65;3.78;;;14.70;94.30;;;;;;5031667;28;20048;-65
2021/09/19 06:32:51;;;;;;;7.97;3.70;;;14.60;94.30;;;;;;5030691;28;20044;-65
2021/09/19 06:35:17;;;;;;;6.95;3.55;;;14.60;94.40;;;;;;5045069;28;20113;-64
2021/09/19 06:37:42;;;;;;;7.78;3.35;;;14.60;94.40;;;;;;5014261;28;20045;-65
2021/09/19 06:40:08;;;;;;;7.07;4.10;;;14.70;94.40;;;;;;5029658;28;20137;-65
2021/09/19 06:42:34;;;;;;;5.80;3.70;;;14.70;94.30;;;;;;5031410;28;20021;-66
2021/09/19 06:44:59;;;;;;;7.55;3.35;;;14.60;94.40;;;;;;5031346;28;20371;-65
2021/09/19 06:47:25;;;;;;;5.88;3.47;;;14.60;94.40;;;;;;5030049;28;20117;-65
2021/09/19 06:49:50;;;;;;;5.43;3.30;;;14.60;94.50;;;;;;5037398;28;20030;-64
2021/09/19 06:52:16;;;;;;;6.95;3.72;;;14.60;94.50;;;;;;5034173;28;20021;-64
2021/09/19 06:54:43;;;;;;;6.80;3.80;;;14.70;94.50;;;;;;5046826;28;20576;-64
2021/09/19 06:57:09;;;;;;;5.55;3.10;;;14.70;94.20;;;;;;5028454;28;20038;-65
2021/09/19 06:59:34;;;;;;;5.60;3.38;;;14.60;94.30;;;;;;5033017;28;20371;-64
2021/09/19 07:02:00;;;;;;;6.05;3.72;;;14.70;94.20;;;;;;5029859;28;20025;-64
2021/09/19 07:04:25;;;;;;;5.68;3.80;;;14.70;94.20;;;;;;5029350;28;20052;-64
2021/09/19 07:06:51;;;;;;;6.10;3.22;;;14.60;94.10;;;;;;5043835;28;20021;-64
2021/09/19 07:09:16;;;;;;;5.82;3.33;;;14.60;94.00;;;;;;5030430;28;20129;-64
2021/09/19 07:11:42;;;;;;;6.28;3.75;;;14.60;94.10;;;;;;5036853;28;20014;-64
2021/09/19 07:14:07;;;;;;;6.65;3.83;;;14.70;94.10;;;;;;5031775;28;20024;-64
2021/09/19 07:16:33;;;;;;;6.00;3.80;;;14.70;94.10;;;;;;5037751;28;20051;-64
2021/09/19 07:18:58;;;;;;;6.20;3.92;;;14.80;94.10;;;;;;5039908;28;20041;-64
2021/09/19 07:21:24;;;;;;;8.00;3.72;;;14.80;94.10;;;;;;5042450;28;20481;-64
2021/09/19 07:23:50;;;;;;;7.45;4.00;;;14.90;94.10;;;;;;5031456;28;20049;-64
2021/09/19 07:26:16;;;;;;;6.72;3.33;;;14.90;93.90;;;;;;5033769;28;20048;-65
2021/09/19 07:28:42;;;;;;;7.60;4.13;;;14.90;94.00;;;;;;5033605;28;20017;-64
2021/09/19 07:31:07;;;;;;;7.15;3.70;;;14.90;93.90;;;;;;5033432;28;20428;-64
2021/09/19 07:33:33;;;;;;;7.05;3.85;;;15.00;94.00;;;;;;5032518;28;20053;-64
2021/09/19 07:35:59;;;;;;;6.88;3.83;;;15.00;94.00;;;;;;5034258;28;20040;-63
2021/09/19 07:38:24;;;;;;;6.63;3.55;;;15.10;94.20;;;;;;5031636;28;20025;-65
2021/09/19 07:40:50;;;;;;;6.57;3.97;;;15.10;94.00;;;;;;5034005;28;20041;-64
2021/09/19 07:43:16;;;;;;;8.13;3.85;;;15.10;94.00;;;;;;5035474;28;20017;-64
2021/09/19 07:45:42;;;;;;;5.72;4.10;;;15.20;94.00;;;;;;5038954;28;20401;-63
2021/09/19 07:48:09;;;;;;;8.52;4.45;;;15.20;93.90;;;;;;5032966;28;20026;-63
2021/09/19 07:50:35;;;;;;;5.97;3.47;;;15.20;93.90;;;;;;5054183;28;20032;-63
2021/09/19 07:53:01;;;;;;;7.25;3.65;;;15.30;93.80;;;;;;5040709;28;20381;-63
2021/09/19 07:55:28;;;;;;;4.72;3.33;;;15.30;93.70;;;;;;5031678;28;20148;-64
2021/09/19 07:57:53;;;;;;;7.43;4.22;;;15.40;93.80;;;;;;5031551;28;20041;-64
2021/09/19 08:00:19;;;;;;;6.00;3.42;;;15.40;93.80;;;;;;5037570;28;20028;-64
2021/09/19 08:02:45;;;;;;;8.23;4.03;;;15.50;93.70;;;;;;5036121;28;20029;-64
2021/09/19 08:05:10;;;;;;;5.10;3.30;;;15.60;93.60;;;;;;5021223;28;20032;-64
2021/09/19 08:07:35;;;;;;;8.95;4.53;;;15.60;93.20;;;;;;5031572;28;20018;-65
2021/09/19 08:10:01;;;;;;;5.32;3.33;;;15.60;92.80;;;;;;5031170;28;20091;-63
2021/09/19 08:12:26;;;;;;;6.68;3.78;;;15.60;92.60;;;;;;5033816;28;20525;-64
2021/09/19 08:14:52;;;;;;;5.60;3.55;;;15.60;92.60;;;;;;5034659;28;20656;-66
2021/09/19 08:17:17;;;;;;;6.85;3.28;;;15.60;92.70;;;;;;5034895;28;20029;-64
2021/09/19 08:19:43;;;;;;;7.15;3.50;;;15.70;92.80;;;;;;5033770;28;20509;-65
2021/09/19 08:22:08;;;;;;;5.40;3.63;;;15.80;92.70;;;;;;5035869;28;20112;-65
2021/09/19 08:24:34;;;;;;;5.88;3.35;;;15.80;92.10;;;;;;5046260;28;20631;-64
2021/09/19 08:26:59;;;;;;;7.57;3.38;;;15.90;92.00;;;;;;5031587;28;20478;-64
2021/09/19 08:29:25;;;;;;;9.10;3.97;;;15.90;91.60;;;;;;5036430;28;20507;-65
2021/09/19 08:31:50;;;;;;;6.32;3.80;;;16.00;91.60;;;;;;5035369;28;20033;-65
2021/09/19 08:34:16;;;;;;;7.30;4.28;;;16.10;91.40;;;;;;5027055;28;20029;-65
2021/09/19 08:36:41;;;;;;;7.80;3.55;;;16.10;91.20;;;;;;5045290;28;20021;-66
2021/09/19 08:39:08;;;;;;;5.72;3.47;;;16.20;91.00;;;;;;5034552;28;20544;-66
2021/09/19 08:41:35;;;;;;;5.30;3.15;;;16.20;90.90;;;;;;5038792;28;20025;-67
2021/09/19 08:44:02;;;;;;;6.55;3.50;;;16.30;90.40;;;;;;5035478;28;20026;-66
2021/09/19 08:46:29;;;;;;;5.72;2.95;;;16.40;90.30;;;;;;5033234;28;20036;-66
2021/09/19 08:48:54;;;;;;;5.25;2.90;;;16.30;89.90;;;;;;5031186;28;20029;-66
2021/09/19 08:51:20;;;;;;;6.35;3.28;;;16.40;90.00;;;;;;5028685;28;20160;-66
2021/09/19 08:53:46;;;;;;;7.03;3.30;;;16.50;89.50;;;;;;5032787;28;20025;-65
2021/09/19 08:56:11;;;;;;;4.47;3.15;;;16.40;87.80;;;;;;5041779;28;20041;-66
2021/09/19 08:58:38;;;;;;;7.20;2.88;;;16.40;87.00;;;;;;5040189;28;20029;-65
2021/09/19 09:01:04;;;;;;;5.68;3.33;;;16.50;87.80;;;;;;5034516;28;20032;-65
2021/09/19 09:03:31;;;;;;;5.10;3.30;;;16.50;88.70;;;;;;5039114;28;20052;-65
2021/09/19 09:06:02;;;;;;;8.20;3.75;;;16.60;89.00;;;;;;5030415;28;20402;-67
2021/09/19 09:08:29;;;;;;;6.05;2.90;;;16.60;88.90;;;;;;5031032;28;20497;-65
2021/09/19 09:10:58;;;;;;;5.70;3.40;;;16.70;88.60;;;;;;5036936;28;20064;-65
2021/09/19 09:13:27;;;;;;;7.10;3.63;;;16.70;87.60;;;;;;5025849;28;20029;-66
2021/09/19 09:16:04;;;;;;;5.82;3.33;;;16.70;87.30;;;;;;5043662;28;20036;-66
2021/09/19 09:18:32;;;;;;;6.03;3.47;;;16.70;87.00;;;;;;5040441;28;20033;-66
2021/09/19 09:21:07;;;;;;;10.07;3.45;;;16.70;87.00;;;;;;5034032;28;20032;-66
2021/09/19 09:23:40;;;;;;;4.57;2.92;;;16.70;86.60;;;;;;5039679;28;20029;-66
2021/09/19 09:26:28;;;;;;;5.03;3.22;;;16.70;87.40;;;;;;5043908;28;20482;-66
2021/09/19 09:29:06;;;;;;;4.55;2.70;;;16.80;85.50;;;;;;5027345;28;20187;-66
2021/09/19 09:31:39;;;;;;;4.32;2.70;;;17.00;86.90;;;;;;5036291;28;20489;-66
2021/09/19 09:34:15;;;;;;;5.60;2.80;;;17.10;86.00;;;;;;5033175;28;20182;-66
2021/09/19 09:36:48;;;;;;;7.20;3.00;;;17.20;86.30;;;;;;5037156;28;20037;-66
2021/09/19 09:39:38;;;;;;;5.18;2.75;;;17.30;85.40;;;;;;5025915;28;20037;-65
2021/09/19 09:42:16;;;;;;;5.30;2.72;;;17.30;84.00;;;;;;5030175;28;20033;-65
2021/09/19 09:44:46;;;;;;;4.00;2.58;;;17.40;82.80;;;;;;5038922;28;20035;-66
2021/09/19 09:47:21;;;;;;;4.72;2.83;;;17.30;82.00;;;;;;5045974;28;20033;-67
2021/09/19 09:49:57;;;;;;;7.40;2.58;;;17.30;82.50;;;;;;5029614;28;20030;-67
2021/09/19 09:52:29;;;;;;;4.53;2.75;;;17.30;82.30;;;;;;5029715;28;20045;-66
2021/09/19 09:55:00;;;;;;;4.82;3.22;;;17.40;83.40;;;;;;5042451;28;20052;-66
2021/09/19 09:57:31;;;;;;;6.50;3.20;;;17.50;81.80;;;;;;5040064;28;20025;-66
2021/09/19 09:59:59;;;;;;;4.38;2.80;;;17.50;80.90;;;;;;5042058;28;20086;-66
2021/09/19 10:02:27;;;;;;;3.88;2.80;;;17.50;81.20;;;;;;5032774;28;20037;-66
2021/09/19 10:04:54;;;;;;;4.65;2.90;;;17.50;79.90;;;;;;5033714;28;20108;-66
2021/09/19 10:07:19;;;;;;;4.85;3.13;;;17.50;78.80;;;;;;5029165;28;20030;-66
2021/09/19 10:09:46;;;;;;;5.35;2.67;;;17.50;78.40;;;;;;5039374;28;20036;-66
2021/09/19 10:12:11;;;;;;;4.30;2.60;;;17.40;78.00;;;;;;5033808;28;20382;-66
2021/09/19 10:14:37;;;;;;;5.05;2.50;;;17.50;77.50;;;;;;5030124;28;20079;-66
2021/09/19 10:17:03;;;;;;;5.43;3.15;;;17.50;75.80;;;;;;5031335;28;20108;-66
2021/09/19 10:19:28;;;;;;;4.70;2.65;;;17.50;75.30;;;;;;5032958;28;20018;-66
2021/09/19 10:21:55;;;;;;;4.40;2.40;;;17.40;74.70;;;;;;5030324;28;20040;-65
2021/09/19 10:24:22;;;;;;;3.72;2.20;;;17.40;72.40;;;;;;5029793;28;20029;-65
2021/09/19 10:26:56;;;;;;;4.07;2.60;;;17.40;72.50;;;;;;5030747;28;20029;-66
2021/09/19 10:29:27;;;;;;;5.32;2.97;;;17.40;73.10;;;;;;5019950;28;20084;-66
2021/09/19 10:31:53;;;;;;;5.32;2.70;;;17.40;74.00;;;;;;5011613;28;20479;-66
2021/09/19 10:34:31;;;;;;;3.65;2.58;;;17.40;72.80;;;;;;5023427;28;20151;-66
2021/09/19 10:36:57;;;;;;;3.65;2.55;;;17.50;71.40;;;;;;5026216;28;20029;-67
2021/09/19 10:39:36;;;;;;;3.58;2.75;;;17.50;70.80;;;;;;5043489;28;20033;-66
2021/09/19 10:42:28;;;;;;;4.00;2.70;;;17.40;71.40;;;;;;5028306;28;20517;-67
2021/09/19 10:44:59;;;;;;;5.45;2.55;;;17.50;72.10;;;;;;5030040;28;20033;-65
2021/09/19 10:47:25;;;;;;;4.78;2.80;;;17.50;71.20;;;;;;5028564;28;20029;-67
2021/09/19 10:50:09;;;;;;;4.32;2.22;;;17.50;70.10;;;;;;5031179;28;20043;-67
2021/09/19 10:52:42;;;;;;;4.38;2.50;;;17.60;70.40;;;;;;5035518;28;20052;-67
2021/09/19 10:55:49;;;;;;;4.82;2.80;;;17.60;70.80;;;;;;5052356;28;20045;-67
2021/09/19 10:58:20;;;;;;;4.30;2.72;;;17.70;71.00;;;;;;5050144;28;20549;-67
2021/09/19 11:01:13;;;;;;;4.43;2.83;;;17.80;70.80;;;;;;5052655;28;20052;-67
2021/09/19 11:03:46;;;;;;;3.47;2.47;;;17.80;68.40;;;;;;5051753;28;20029;-67
2021/09/19 11:06:22;;;;;;;3.30;2.05;;;17.70;68.40;;;;;;5053451;28;20055;-67
2021/09/19 11:08:48;;;;;;;2.83;1.90;;;17.60;68.60;;;;;;5052423;28;20029;-67
2021/09/19 11:11:22;;;;;;;3.83;2.30;;;17.60;68.40;;;;;;5034575;28;20029;-67
2021/09/19 11:13:55;;;;;;;4.80;2.63;;;17.70;69.10;;;;;;5040529;28;20024;-67
2021/09/19 11:16:27;;;;;;;2.95;2.13;;;17.70;69.30;;;;;;5054540;28;20119;-67
2021/09/19 11:18:55;;;;;;;5.63;2.20;;;17.80;68.80;;;;;;5044202;28;20045;-67
2021/09/19 11:21:20;;;;;;;3.72;2.80;;;17.70;68.00;;;;;;5034294;28;20035;-67
2021/09/19 11:24:02;;;;;;;4.80;2.97;;;17.70;69.00;;;;;;5033074;28;20473;-67
2021/09/19 11:26:30;;;;;;;3.95;2.45;;;17.60;69.30;;;;;;5034585;28;20030;-66
2021/09/19 11:29:15;;;;;;;3.90;2.58;;;17.60;68.50;;;;;;5027207;28;20026;-66
2021/09/19 11:31:42;;;;;;;3.42;2.33;;;17.50;68.60;;;;;;5034203;28;20466;-66
2021/09/19 11:34:12;;;;;;;7.80;2.90;;;17.50;68.60;;;;;;5032594;28;20039;-66
2021/09/19 11:36:43;;;;;;;3.63;2.58;;;17.40;69.20;;;;;;5034056;28;20033;-66
2021/09/19 11:39:09;;;;;;;3.85;2.70;;;17.50;70.10;;;;;;5034866;28;20034;-66
2021/09/19 11:41:34;;;;;;;3.30;2.67;;;17.50;70.20;;;;;;5034174;28;20041;-66
2021/09/19 11:44:00;;;;;;;6.32;3.63;;;17.60;70.90;;;;;;5035030;28;20104;-67
2021/09/19 11:46:26;;;;;;;3.75;2.65;;;17.60;70.80;;;;;;5032658;28;20031;-67
2021/09/19 11:48:53;;;;;;;6.95;2.65;;;17.60;71.10;;;;;;5032557;28;20507;-66
2021/09/19 11:51:20;;;;;;;6.22;3.15;;;17.60;70.70;;;;;;5034413;28;20033;-66
2021/09/19 11:53:49;;;;;;;4.22;2.47;;;17.50;69.90;;;;;;5029706;28;20052;-66
2021/09/19 11:56:15;;;;;;;5.68;2.75;;;17.40;69.70;;;;;;5031206;28;20103;-66
2021/09/19 11:58:41;;;;;;;5.85;3.08;;;17.30;70.00;;;;;;5045548;28;20033;-67
2021/09/19 12:01:07;;;;;;;5.50;2.60;;;17.40;71.00;;;;;;5033050;28;20368;-67
2021/09/19 12:03:33;;;;;;;4.97;2.60;;;17.40;71.40;;;;;;5042627;28;20017;-67
2021/09/19 12:06:02;;;;;;;4.28;2.75;;;17.50;71.50;;;;;;5030745;28;20041;-67
2021/09/19 12:08:30;;;;;;;4.53;2.75;;;17.40;71.80;;;;;;5044214;28;20032;-67
2021/09/19 12:10:57;;;;;;;4.40;2.70;;;17.50;71.60;;;;;;5036910;28;20040;-67
2021/09/19 12:13:33;;;;;;;4.50;3.00;;;17.40;71.40;;;;;;5039734;28;20393;-67
2021/09/19 12:16:15;;;;;;;4.85;2.90;;;17.40;71.50;;;;;;5041734;28;20438;-67
2021/09/19 12:18:43;;;;;;;4.57;3.03;;;17.40;70.50;;;;;;5039176;28;20412;-66
2021/09/19 12:21:15;;;;;;;5.40;2.90;;;17.40;70.90;;;;;;5030646;28;20094;-67
2021/09/19 12:23:49;;;;;;;4.85;2.70;;;17.30;70.60;;;;;;5035414;28;20030;-66
2021/09/19 12:26:27;;;;;;;5.05;2.90;;;17.30;71.30;;;;;;5039997;28;20587;-67
2021/09/19 12:28:56;;;;;;;5.32;2.70;;;17.40;71.70;;;;;;5030379;28;20064;-67
2021/09/19 12:31:41;;;;;;;3.47;2.60;;;17.40;72.40;;;;;;5039962;28;20501;-66
2021/09/19 12:34:09;;;;;;;3.75;2.35;;;17.40;71.70;;;;;;5037080;28;20087;-66
2021/09/19 12:36:44;;;;;;;3.85;2.75;;;17.40;71.60;;;;;;5033284;28;20477;-67
2021/09/19 12:39:20;;;;;;;5.13;2.65;;;17.40;72.30;;;;;;5037859;28;20045;-69
2021/09/19 12:41:48;;;;;;;5.32;2.70;;;17.40;71.50;;;;;;5027856;28;20579;-68
2021/09/19 12:44:17;;;;;;;4.55;2.38;;;17.40;71.70;;;;;;5042287;28;20172;-67
2021/09/19 12:46:52;;;;;;;4.13;2.72;;;17.40;71.50;;;;;;5028182;28;20033;-67